Time;durP1;ratioP1;P1;durP2;ratioP2;P2;SDS_P1;SDS_P2;PMS_P1;PMS_P2;Temp;Humidity;BMP_temperature;BMP_pressure;BME280_temperature;BME280_humidity;BME280_pressure;Samples;Min_cycle;Max_cycle;Signal;HPM_P1;HPM_P2
2021/06/08 00:00:55;;;;;;;1.30;1.20;;;18.40;99.90;;;;;;5071721;28;20032;-59
2021/06/08 00:03:21;;;;;;;1.13;1.13;;;18.40;99.90;;;;;;5069115;28;20025;-59
2021/06/08 00:05:47;;;;;;;1.88;1.77;;;18.40;99.90;;;;;;5068867;28;20032;-59
2021/06/08 00:08:13;;;;;;;1.33;1.23;;;18.50;99.90;;;;;;5069803;28;20123;-59
2021/06/08 00:10:38;;;;;;;1.55;1.42;;;18.50;99.90;;;;;;5068937;28;20509;-59
2021/06/08 00:13:04;;;;;;;1.50;1.40;;;18.30;99.90;;;;;;5068745;28;20029;-59
2021/06/08 00:15:30;;;;;;;1.77;1.55;;;18.40;99.90;;;;;;5068530;28;20147;-59
2021/06/08 00:17:56;;;;;;;1.55;1.45;;;18.30;99.90;;;;;;5068398;28;20518;-59
2021/06/08 00:20:22;;;;;;;1.40;1.30;;;18.30;99.90;;;;;;5079788;28;20032;-59
2021/06/08 00:22:47;;;;;;;1.65;1.33;;;18.20;99.90;;;;;;5088679;28;20028;-59
2021/06/08 00:25:14;;;;;;;1.58;1.48;;;18.20;99.90;;;;;;5088373;28;20034;-59
2021/06/08 00:27:40;;;;;;;1.50;1.40;;;18.20;99.90;;;;;;5088482;28;20517;-59
2021/06/08 00:30:06;;;;;;;1.50;1.40;;;18.10;99.90;;;;;;5074843;28;20041;-59
2021/06/08 00:32:32;;;;;;;2.67;1.63;;;18.20;99.90;;;;;;5068251;28;20421;-59
2021/06/08 00:34:58;;;;;;;1.27;1.17;;;18.30;99.90;;;;;;5068338;28;20401;-59
2021/06/08 00:37:24;;;;;;;1.33;1.23;;;18.30;99.90;;;;;;5067553;28;20024;-59
2021/06/08 00:39:49;;;;;;;1.40;1.30;;;18.40;99.90;;;;;;5068270;28;20035;-59
2021/06/08 00:42:25;;;;;;;1.40;1.30;;;18.30;99.90;;;;;;5069019;28;20387;-59
2021/06/08 00:44:50;;;;;;;1.40;1.30;;;18.30;99.90;;;;;;5067218;28;20056;-59
2021/06/08 00:47:16;;;;;;;1.45;1.35;;;18.40;99.90;;;;;;5068448;28;20125;-59
2021/06/08 00:49:42;;;;;;;1.55;1.45;;;18.30;99.90;;;;;;5068054;28;20047;-59
2021/06/08 00:52:08;;;;;;;1.95;1.70;;;18.40;99.90;;;;;;5068126;28;20024;-59
2021/06/08 00:54:33;;;;;;;1.90;1.52;;;18.20;99.90;;;;;;5067793;28;20025;-59
2021/06/08 00:56:59;;;;;;;1.60;1.50;;;18.20;99.90;;;;;;5068245;28;20130;-59
2021/06/08 00:59:25;;;;;;;1.90;1.63;;;18.10;99.90;;;;;;5067617;28;20048;-59
2021/06/08 01:01:51;;;;;;;1.90;1.60;;;18.00;99.90;;;;;;5070270;28;20108;-59
2021/06/08 01:04:16;;;;;;;1.50;1.40;;;18.00;99.90;;;;;;5068350;28;20043;-59
2021/06/08 01:06:47;;;;;;;1.50;1.40;;;17.90;99.90;;;;;;5067988;28;20545;-59
2021/06/08 01:09:13;;;;;;;2.13;1.70;;;17.90;99.90;;;;;;5068471;28;20028;-59
2021/06/08 01:11:39;;;;;;;2.00;1.80;;;17.90;99.90;;;;;;5067353;28;20028;-59
2021/06/08 01:14:05;;;;;;;1.65;1.48;;;17.80;99.90;;;;;;5067390;28;20055;-59
2021/06/08 01:16:31;;;;;;;1.73;1.63;;;17.70;99.90;;;;;;5066925;28;20025;-59
2021/06/08 01:18:58;;;;;;;1.58;1.48;;;17.70;99.90;;;;;;5067452;28;20032;-59
2021/06/08 01:21:24;;;;;;;1.67;1.40;;;17.80;99.90;;;;;;5067363;28;20044;-59
2021/06/08 01:23:50;;;;;;;1.90;1.80;;;17.70;99.90;;;;;;5066891;28;20033;-59
2021/06/08 01:26:17;;;;;;;2.15;1.73;;;17.70;99.90;;;;;;5068069;28;20603;-59
2021/06/08 01:28:45;;;;;;;1.77;1.67;;;17.70;99.90;;;;;;5067169;28;20056;-59
2021/06/08 01:31:20;;;;;;;1.60;1.50;;;17.70;99.90;;;;;;5067579;28;20029;-59
2021/06/08 01:33:46;;;;;;;1.95;1.77;;;17.70;99.90;;;;;;5081641;28;20533;-59
2021/06/08 01:36:19;;;;;;;1.65;1.50;;;17.60;99.90;;;;;;5088219;28;20031;-59
2021/06/08 01:38:46;;;;;;;2.53;1.75;;;17.50;99.90;;;;;;5087979;28;20036;-59
2021/06/08 01:41:13;;;;;;;1.77;1.63;;;17.60;99.90;;;;;;5082120;28;20494;-59
2021/06/08 01:43:44;;;;;;;2.15;1.90;;;17.60;99.90;;;;;;5066720;28;20032;-59
2021/06/08 01:46:09;;;;;;;1.70;1.50;;;17.60;99.90;;;;;;5079706;28;20513;-59
2021/06/08 01:48:36;;;;;;;2.25;1.88;;;17.50;99.90;;;;;;5086705;28;20190;-59
2021/06/08 01:51:23;;;;;;;1.45;1.30;;;17.50;99.90;;;;;;5087691;28;20055;-59
2021/06/08 01:53:55;;;;;;;2.10;1.80;;;17.50;99.90;;;;;;5087087;28;20035;-59
2021/06/08 01:56:23;;;;;;;1.70;1.60;;;17.50;99.90;;;;;;5087123;28;20021;-59
2021/06/08 01:59:15;;;;;;;1.80;1.70;;;17.50;99.90;;;;;;5087232;28;20024;-59
2021/06/08 02:01:44;;;;;;;1.85;1.63;;;17.50;99.90;;;;;;5072132;28;20040;-59
2021/06/08 02:04:26;;;;;;;2.60;1.88;;;17.40;99.90;;;;;;5066427;28;20038;-59
2021/06/08 02:07:14;;;;;;;1.60;1.50;;;17.50;99.90;;;;;;5067069;28;20107;-59
2021/06/08 02:09:59;;;;;;;1.80;1.70;;;17.50;99.90;;;;;;5065925;28;20075;-59
2021/06/08 02:12:26;;;;;;;1.77;1.67;;;17.50;99.90;;;;;;5066143;28;20487;-59
2021/06/08 02:15:12;;;;;;;2.05;1.70;;;17.50;99.90;;;;;;5066731;28;20099;-59
2021/06/08 02:17:39;;;;;;;1.90;1.70;;;17.40;99.90;;;;;;5065699;28;20505;-59
2021/06/08 02:20:17;;;;;;;2.90;2.10;;;17.30;99.90;;;;;;5066546;28;20090;-59
2021/06/08 02:22:46;;;;;;;2.08;1.88;;;17.20;99.90;;;;;;5066771;28;20491;-59
2021/06/08 02:25:16;;;;;;;2.25;1.70;;;17.30;99.90;;;;;;5066916;28;20063;-59
2021/06/08 02:27:42;;;;;;;1.48;1.38;;;17.30;99.90;;;;;;5066701;28;20024;-59
2021/06/08 02:30:09;;;;;;;1.70;1.60;;;17.30;99.90;;;;;;5066675;28;20525;-59
2021/06/08 02:32:37;;;;;;;2.05;1.85;;;17.10;99.90;;;;;;5065432;28;20050;-59
2021/06/08 02:35:04;;;;;;;2.20;2.00;;;17.10;99.90;;;;;;5066888;28;20031;-59
2021/06/08 02:37:31;;;;;;;1.70;1.58;;;17.20;99.90;;;;;;5066427;28;20079;-59
2021/06/08 02:39:59;;;;;;;1.60;1.50;;;17.20;99.90;;;;;;5066367;28;20024;-59
2021/06/08 02:42:25;;;;;;;1.77;1.67;;;17.20;99.90;;;;;;5066105;28;20027;-59
2021/06/08 02:44:53;;;;;;;2.22;1.63;;;17.20;99.90;;;;;;5066435;28;20024;-59
2021/06/08 02:47:20;;;;;;;1.67;1.58;;;17.20;99.90;;;;;;5066033;28;20012;-59
2021/06/08 02:49:47;;;;;;;1.92;1.60;;;17.10;99.90;;;;;;5066329;28;20033;-59
2021/06/08 02:52:16;;;;;;;1.90;1.80;;;17.10;99.90;;;;;;5066888;28;20020;-59
2021/06/08 02:54:43;;;;;;;1.98;1.80;;;17.10;99.90;;;;;;5066346;28;20071;-59
2021/06/08 02:57:10;;;;;;;1.88;1.77;;;17.00;99.90;;;;;;5066693;28;20027;-59
2021/06/08 02:59:38;;;;;;;1.75;1.65;;;17.00;99.90;;;;;;5066257;28;20142;-59
2021/06/08 03:02:12;;;;;;;2.05;1.85;;;16.90;99.90;;;;;;5069818;28;20040;-59
2021/06/08 03:04:56;;;;;;;2.00;1.80;;;16.90;99.90;;;;;;5066019;28;20036;-59
2021/06/08 03:07:24;;;;;;;1.70;1.60;;;16.90;99.90;;;;;;5066374;28;20025;-59
2021/06/08 03:10:05;;;;;;;2.08;1.88;;;16.80;99.90;;;;;;5069198;28;20081;-59
2021/06/08 03:12:40;;;;;;;2.00;1.85;;;16.80;99.90;;;;;;5072460;28;20051;-59
2021/06/08 03:15:07;;;;;;;2.30;1.90;;;16.80;99.90;;;;;;5090465;28;20020;-59
2021/06/08 03:17:36;;;;;;;2.40;2.15;;;16.80;99.90;;;;;;5089345;28;20024;-59
2021/06/08 03:20:35;;;;;;;2.33;1.90;;;16.90;99.90;;;;;;5090425;28;20024;-59
2021/06/08 03:23:04;;;;;;;2.83;2.10;;;16.80;99.90;;;;;;5089906;28;20566;-59
2021/06/08 03:25:31;;;;;;;2.25;1.90;;;16.80;99.90;;;;;;5089837;28;20020;-59
2021/06/08 03:27:59;;;;;;;1.70;1.60;;;16.90;99.90;;;;;;5089942;28;20516;-59
2021/06/08 03:30:26;;;;;;;2.03;1.83;;;16.90;99.90;;;;;;5089755;28;20027;-59
2021/06/08 03:32:53;;;;;;;2.00;1.80;;;16.90;99.90;;;;;;5073547;28;20077;-59
2021/06/08 03:35:21;;;;;;;1.65;1.55;;;16.90;99.90;;;;;;5069690;28;20442;-59
2021/06/08 03:37:50;;;;;;;1.70;1.60;;;16.80;99.90;;;;;;5068058;28;20039;-59
2021/06/08 03:40:16;;;;;;;1.92;1.80;;;16.90;99.90;;;;;;5070362;28;20031;-59
2021/06/08 03:42:43;;;;;;;2.60;1.85;;;16.90;99.90;;;;;;5068539;28;20135;-59
2021/06/08 03:45:14;;;;;;;2.38;2.10;;;16.90;99.90;;;;;;5069531;28;20504;-59
2021/06/08 03:47:45;;;;;;;2.10;1.90;;;16.80;99.90;;;;;;5068855;28;20029;-59
2021/06/08 03:50:14;;;;;;;2.05;1.75;;;16.90;99.90;;;;;;5069311;28;20024;-59
2021/06/08 03:52:42;;;;;;;2.17;1.98;;;16.90;99.90;;;;;;5068790;28;20024;-59
2021/06/08 03:55:09;;;;;;;2.30;2.10;;;16.90;99.90;;;;;;5069416;28;20031;-59
2021/06/08 03:57:43;;;;;;;2.30;2.00;;;16.80;99.90;;;;;;5068968;28;20048;-59
2021/06/08 04:00:10;;;;;;;2.33;2.00;;;16.80;99.90;;;;;;5070354;28;20025;-59
2021/06/08 04:02:39;;;;;;;4.35;2.03;;;16.80;99.90;;;;;;5069075;28;20025;-59
2021/06/08 04:05:07;;;;;;;2.40;2.20;;;16.80;99.90;;;;;;5069042;28;20105;-59
2021/06/08 04:07:33;;;;;;;3.47;1.85;;;16.80;99.90;;;;;;5068896;28;20513;-59
2021/06/08 04:09:59;;;;;;;2.20;2.00;;;16.90;99.90;;;;;;5071604;28;21177;-59
2021/06/08 04:12:25;;;;;;;2.10;1.90;;;17.00;99.90;;;;;;5088864;28;20073;-59
2021/06/08 04:14:51;;;;;;;1.85;1.73;;;17.00;99.90;;;;;;5089241;28;20558;-59
2021/06/08 04:17:17;;;;;;;2.03;1.80;;;17.00;99.90;;;;;;5089331;28;20028;-59
2021/06/08 04:19:47;;;;;;;2.17;1.98;;;17.10;99.90;;;;;;5089217;28;20035;-59
2021/06/08 04:22:25;;;;;;;1.98;1.70;;;17.00;99.90;;;;;;5089444;28;20433;-59
2021/06/08 04:24:51;;;;;;;2.20;1.98;;;17.10;99.90;;;;;;5089006;28;20028;-59
2021/06/08 04:27:25;;;;;;;2.05;1.70;;;17.10;99.90;;;;;;5089088;28;20367;-60
2021/06/08 04:29:51;;;;;;;1.98;1.80;;;17.00;99.90;;;;;;5077069;28;20033;-59
2021/06/08 04:32:18;;;;;;;2.28;2.05;;;17.00;99.90;;;;;;5068550;28;20063;-59
2021/06/08 04:34:51;;;;;;;2.38;2.15;;;17.00;99.90;;;;;;5068976;28;20029;-59
2021/06/08 04:37:18;;;;;;;2.95;2.38;;;17.00;99.90;;;;;;5068903;28;20025;-59
2021/06/08 04:39:44;;;;;;;2.42;2.10;;;16.90;99.90;;;;;;5068909;28;20021;-59
2021/06/08 04:42:12;;;;;;;2.60;2.35;;;17.00;99.90;;;;;;5068368;28;20078;-59
2021/06/08 04:44:45;;;;;;;2.45;2.25;;;17.00;99.90;;;;;;5067964;28;20024;-59
2021/06/08 04:47:11;;;;;;;2.20;2.00;;;16.90;99.90;;;;;;5068211;28;20028;-59
2021/06/08 04:49:38;;;;;;;2.30;2.10;;;17.00;99.90;;;;;;5066393;28;20032;-59
2021/06/08 04:52:05;;;;;;;1.67;1.58;;;17.00;99.90;;;;;;5068387;28;21892;-59
2021/06/08 04:54:32;;;;;;;2.50;2.30;;;17.10;99.90;;;;;;5068003;28;20024;-59
2021/06/08 04:56:58;;;;;;;2.28;2.08;;;17.10;99.90;;;;;;5067969;28;20028;-59
2021/06/08 04:59:40;;;;;;;3.03;2.33;;;17.20;99.90;;;;;;5069300;28;20085;-59
2021/06/08 05:02:08;;;;;;;2.67;2.40;;;17.40;99.90;;;;;;5070766;28;20124;-59
2021/06/08 05:04:39;;;;;;;2.10;1.90;;;17.30;99.90;;;;;;5067492;28;20111;-59
2021/06/08 05:07:08;;;;;;;2.20;2.00;;;17.50;99.90;;;;;;5068842;28;20056;-59
2021/06/08 05:09:40;;;;;;;2.30;2.00;;;17.50;99.90;;;;;;5068574;28;20059;-59
2021/06/08 05:12:09;;;;;;;2.08;1.88;;;17.50;99.90;;;;;;5066695;28;20051;-59
2021/06/08 05:14:36;;;;;;;2.35;2.13;;;17.60;99.90;;;;;;5067251;28;20023;-59
2021/06/08 05:17:03;;;;;;;2.00;1.83;;;17.60;99.90;;;;;;5067290;28;20562;-59
2021/06/08 05:19:32;;;;;;;2.72;2.53;;;17.60;99.90;;;;;;5070318;28;20059;-59
2021/06/08 05:21:58;;;;;;;2.30;1.90;;;17.60;99.90;;;;;;5088086;28;20020;-59
2021/06/08 05:24:24;;;;;;;2.25;1.90;;;17.60;99.90;;;;;;5087218;28;20024;-59
2021/06/08 05:26:51;;;;;;;2.33;2.08;;;17.60;99.90;;;;;;5088189;28;20466;-59
2021/06/08 05:29:20;;;;;;;2.22;2.03;;;17.70;99.90;;;;;;5088100;28;20024;-59
2021/06/08 05:31:46;;;;;;;2.33;2.13;;;17.70;99.90;;;;;;5086898;28;20111;-59
2021/06/08 05:34:14;;;;;;;2.78;2.30;;;17.60;99.90;;;;;;5079666;28;20034;-59
2021/06/08 05:36:41;;;;;;;2.58;2.38;;;17.60;99.90;;;;;;5066323;28;20136;-59
2021/06/08 05:39:08;;;;;;;2.90;2.40;;;17.60;99.90;;;;;;5067600;28;20078;-59
2021/06/08 05:41:34;;;;;;;2.33;2.08;;;17.60;99.90;;;;;;5067096;28;20103;-59
2021/06/08 05:44:00;;;;;;;2.58;2.38;;;17.70;99.90;;;;;;5067086;28;20025;-59
2021/06/08 05:46:33;;;;;;;2.83;2.22;;;17.70;99.90;;;;;;5066819;28;20040;-59
2021/06/08 05:49:05;;;;;;;2.42;2.22;;;17.70;99.90;;;;;;5066723;28;20596;-59
2021/06/08 05:51:32;;;;;;;2.13;1.90;;;17.70;99.90;;;;;;5067149;28;20036;-59
2021/06/08 05:53:59;;;;;;;2.40;2.20;;;17.70;99.90;;;;;;5066733;28;20023;-59
2021/06/08 05:56:26;;;;;;;2.47;2.10;;;17.70;99.90;;;;;;5066016;28;20023;-59
2021/06/08 05:58:54;;;;;;;2.83;2.63;;;17.60;99.90;;;;;;5067648;28;20074;-59
2021/06/08 06:01:23;;;;;;;2.75;2.55;;;17.70;99.90;;;;;;5070496;28;20024;-59
2021/06/08 06:03:51;;;;;;;2.83;2.45;;;17.70;99.90;;;;;;5084749;28;20031;-59
2021/06/08 06:06:17;;;;;;;3.15;2.75;;;17.50;99.90;;;;;;5083268;28;20803;-60
2021/06/08 06:08:43;;;;;;;2.95;2.53;;;17.60;99.90;;;;;;5080564;28;20043;-59
2021/06/08 06:11:13;;;;;;;2.42;2.22;;;17.60;99.90;;;;;;5087224;28;20032;-59
2021/06/08 06:13:57;;;;;;;2.20;2.00;;;17.80;99.90;;;;;;5077568;28;20032;-60
2021/06/08 06:16:25;;;;;;;2.67;2.10;;;17.80;99.90;;;;;;5080947;28;20016;-59
2021/06/08 06:18:50;;;;;;;2.15;1.95;;;17.80;99.90;;;;;;5082583;28;20101;-59
2021/06/08 06:21:17;;;;;;;2.55;2.30;;;17.70;99.90;;;;;;5065169;28;20409;-59
2021/06/08 06:23:44;;;;;;;2.47;2.13;;;17.70;99.90;;;;;;5064781;28;20040;-59
2021/06/08 06:26:09;;;;;;;2.00;1.83;;;17.80;99.90;;;;;;5065241;28;20028;-60
2021/06/08 06:28:39;;;;;;;2.67;2.33;;;17.80;99.90;;;;;;5064789;28;20032;-59
2021/06/08 06:31:07;;;;;;;2.00;1.80;;;17.70;99.90;;;;;;5068902;28;20034;-59
2021/06/08 06:33:33;;;;;;;2.47;2.28;;;17.80;99.90;;;;;;5085085;28;20028;-59
2021/06/08 06:36:00;;;;;;;2.33;1.80;;;17.90;99.90;;;;;;5084428;28;20033;-59
2021/06/08 06:38:27;;;;;;;2.75;2.22;;;18.00;99.90;;;;;;5084553;28;20493;-59
2021/06/08 06:40:53;;;;;;;3.35;2.85;;;18.00;99.90;;;;;;5085153;28;20032;-59
2021/06/08 06:43:24;;;;;;;2.78;2.28;;;17.90;99.90;;;;;;5086165;28;20024;-59
2021/06/08 06:45:53;;;;;;;2.97;2.67;;;18.00;99.90;;;;;;5089650;28;20107;-59
2021/06/08 06:48:19;;;;;;;2.88;2.30;;;17.90;99.90;;;;;;5090054;28;20028;-59
2021/06/08 06:50:46;;;;;;;6.68;4.32;;;17.80;99.90;;;;;;5089115;28;20028;-59
2021/06/08 06:53:14;;;;;;;3.85;3.20;;;17.60;99.90;;;;;;5086648;28;20483;-59
2021/06/08 06:55:40;;;;;;;3.28;2.95;;;17.80;99.90;;;;;;5078572;28;20059;-59
2021/06/08 06:58:06;;;;;;;3.15;2.60;;;18.00;99.90;;;;;;5083866;28;20098;-59
2021/06/08 07:00:32;;;;;;;3.33;3.03;;;18.00;99.90;;;;;;5081370;28;20466;-60
2021/06/08 07:02:59;;;;;;;3.20;2.90;;;17.90;99.90;;;;;;5088891;28;20103;-60
2021/06/08 07:05:27;;;;;;;4.53;3.50;;;18.00;99.90;;;;;;5069095;28;20733;-60
2021/06/08 07:07:54;;;;;;;3.10;2.80;;;17.80;99.90;;;;;;5068642;28;20056;-60
2021/06/08 07:10:22;;;;;;;3.72;3.40;;;17.90;99.90;;;;;;5069332;28;20028;-60
2021/06/08 07:12:49;;;;;;;2.72;2.45;;;18.00;99.90;;;;;;5069210;28;20090;-59
2021/06/08 07:15:22;;;;;;;2.80;2.55;;;18.10;99.90;;;;;;5068669;28;20021;-60
2021/06/08 07:17:47;;;;;;;2.63;2.42;;;18.10;99.90;;;;;;5077743;28;20450;-59
2021/06/08 07:20:16;;;;;;;2.25;2.05;;;18.20;99.90;;;;;;5068969;28;20096;-60
2021/06/08 07:22:44;;;;;;;2.08;1.67;;;18.30;99.90;;;;;;5077657;28;20024;-60
2021/06/08 07:25:10;;;;;;;2.00;1.75;;;18.40;99.90;;;;;;5088645;28;20099;-59
2021/06/08 07:27:37;;;;;;;1.85;1.75;;;18.50;99.90;;;;;;5088125;28;20035;-60
2021/06/08 07:30:08;;;;;;;2.08;1.90;;;18.50;99.90;;;;;;5086897;28;20028;-59
2021/06/08 07:32:55;;;;;;;2.50;2.08;;;18.60;99.90;;;;;;5089964;28;20039;-59
2021/06/08 07:35:32;;;;;;;1.70;1.60;;;18.60;99.90;;;;;;5089707;28;20503;-59
2021/06/08 07:38:06;;;;;;;3.05;2.67;;;18.60;99.90;;;;;;5088461;28;20391;-60
2021/06/08 07:40:43;;;;;;;2.45;2.25;;;18.50;99.90;;;;;;5088806;28;20112;-59
2021/06/08 07:43:11;;;;;;;5.90;4.80;;;18.40;99.90;;;;;;5087627;28;20024;-59
2021/06/08 07:45:41;;;;;;;5.85;4.85;;;18.20;99.90;;;;;;5087785;28;20132;-60
2021/06/08 07:48:12;;;;;;;5.55;4.60;;;18.20;99.90;;;;;;5088374;28;20043;-60
2021/06/08 07:50:39;;;;;;;10.88;5.88;;;18.30;99.90;;;;;;5087931;28;20034;-60
2021/06/08 07:53:06;;;;;;;4.75;4.25;;;18.30;99.90;;;;;;5087511;28;20052;-59
2021/06/08 07:55:32;;;;;;;5.35;4.20;;;18.40;99.90;;;;;;5087566;28;20280;-59
2021/06/08 07:57:58;;;;;;;3.47;3.17;;;18.40;99.90;;;;;;5087903;28;20090;-59
2021/06/08 08:00:25;;;;;;;4.07;3.65;;;18.50;99.90;;;;;;5087479;28;20028;-60
2021/06/08 08:02:55;;;;;;;3.20;2.90;;;18.60;99.90;;;;;;5087769;28;20032;-60
2021/06/08 08:05:23;;;;;;;3.25;2.95;;;18.70;99.90;;;;;;5087934;28;20111;-60
2021/06/08 08:07:50;;;;;;;4.47;4.03;;;18.80;99.90;;;;;;5087794;28;20217;-59
2021/06/08 08:10:19;;;;;;;4.53;3.92;;;18.60;99.90;;;;;;5087870;28;20077;-59
2021/06/08 08:12:47;;;;;;;4.25;3.42;;;18.50;99.90;;;;;;5085785;28;20048;-60
2021/06/08 08:15:13;;;;;;;4.85;4.03;;;18.60;99.90;;;;;;5087852;28;20034;-60
2021/06/08 08:17:40;;;;;;;3.67;3.38;;;18.60;99.90;;;;;;5087184;28;20073;-59
2021/06/08 08:20:09;;;;;;;3.63;2.83;;;18.60;99.90;;;;;;5087553;28;20111;-60
2021/06/08 08:22:36;;;;;;;3.45;3.00;;;18.80;99.90;;;;;;5087494;28;20028;-59
2021/06/08 08:25:03;;;;;;;3.40;3.10;;;18.90;99.90;;;;;;5088261;28;20024;-59
2021/06/08 08:27:30;;;;;;;5.32;3.40;;;18.90;99.90;;;;;;5087069;28;20116;-60
2021/06/08 08:29:55;;;;;;;5.53;4.35;;;19.00;99.90;;;;;;5087337;28;20035;-59
2021/06/08 08:32:22;;;;;;;4.10;3.20;;;18.90;99.90;;;;;;5087326;28;20069;-60
2021/06/08 08:34:48;;;;;;;3.35;3.05;;;19.10;99.90;;;;;;5086188;28;20119;-60
2021/06/08 08:37:14;;;;;;;3.20;2.88;;;19.30;99.90;;;;;;5087477;28;20497;-60
2021/06/08 08:39:39;;;;;;;2.80;2.50;;;19.40;99.90;;;;;;5087078;28;20024;-60
2021/06/08 08:42:06;;;;;;;2.53;2.25;;;19.50;99.90;;;;;;5087283;28;20032;-59
2021/06/08 08:44:33;;;;;;;3.85;2.70;;;19.60;99.90;;;;;;5087159;28;20055;-60
2021/06/08 08:46:58;;;;;;;3.10;2.50;;;19.70;99.90;;;;;;5087443;28;20016;-60
2021/06/08 08:49:28;;;;;;;4.53;3.40;;;19.90;99.90;;;;;;5086779;28;20054;-59
2021/06/08 08:51:56;;;;;;;3.00;2.70;;;19.80;99.90;;;;;;5086883;28;20031;-60
2021/06/08 08:54:22;;;;;;;2.60;2.40;;;19.80;99.90;;;;;;5086780;28;20112;-60
2021/06/08 08:56:48;;;;;;;3.47;2.90;;;19.80;99.90;;;;;;5086992;28;20161;-60
2021/06/08 08:59:17;;;;;;;2.30;2.08;;;19.90;99.90;;;;;;5086881;28;20054;-60
2021/06/08 09:01:46;;;;;;;1.80;1.70;;;19.90;99.90;;;;;;5086560;28;20028;-60
2021/06/08 09:04:12;;;;;;;2.30;2.10;;;19.90;99.90;;;;;;5087049;28;20555;-60
2021/06/08 09:06:38;;;;;;;3.33;2.72;;;19.80;99.90;;;;;;5086003;28;20480;-59
2021/06/08 09:09:06;;;;;;;5.47;3.85;;;19.70;99.90;;;;;;5087234;28;20067;-59
2021/06/08 09:11:37;;;;;;;4.55;4.00;;;19.40;99.90;;;;;;5087013;28;20035;-59
2021/06/08 09:14:03;;;;;;;3.83;3.40;;;19.40;99.90;;;;;;5086877;28;20028;-60
2021/06/08 09:16:30;;;;;;;3.47;3.10;;;19.50;99.90;;;;;;5083826;28;20189;-59
2021/06/08 09:18:56;;;;;;;3.15;2.53;;;19.70;99.90;;;;;;5086750;28;20035;-59
2021/06/08 09:21:25;;;;;;;4.18;2.70;;;19.90;99.90;;;;;;5086396;28;20020;-59
2021/06/08 09:23:51;;;;;;;2.45;2.15;;;20.10;99.90;;;;;;5085710;28;20099;-60
2021/06/08 09:26:17;;;;;;;2.70;2.30;;;20.30;99.90;;;;;;5086148;28;20028;-59
2021/06/08 09:28:45;;;;;;;2.72;2.50;;;20.30;99.90;;;;;;5085863;28;20024;-60
2021/06/08 09:31:23;;;;;;;3.85;2.90;;;20.20;99.90;;;;;;5085937;28;20024;-60
2021/06/08 09:33:54;;;;;;;4.30;3.67;;;20.10;99.90;;;;;;5085539;28;20028;-60
2021/06/08 09:36:28;;;;;;;3.10;2.80;;;20.10;99.90;;;;;;5086254;28;20016;-60
2021/06/08 09:39:02;;;;;;;3.03;2.45;;;20.30;99.90;;;;;;5086395;28;20055;-60
2021/06/08 09:41:31;;;;;;;2.60;2.40;;;20.40;99.90;;;;;;5085661;28;20481;-60
2021/06/08 09:44:01;;;;;;;2.10;1.83;;;20.40;99.90;;;;;;5085913;28;20885;-59
2021/06/08 09:46:33;;;;;;;2.05;1.88;;;20.50;99.90;;;;;;5085595;28;20052;-60
2021/06/08 09:49:03;;;;;;;2.35;2.15;;;20.50;99.90;;;;;;5085888;28;20059;-60
2021/06/08 09:51:52;;;;;;;1.85;1.52;;;20.60;99.90;;;;;;5085466;28;20054;-60
2021/06/08 09:54:35;;;;;;;2.00;1.90;;;20.80;99.90;;;;;;5084453;28;20028;-60
2021/06/08 09:57:23;;;;;;;1.77;1.67;;;20.80;99.90;;;;;;5085689;28;20084;-60
2021/06/08 09:59:57;;;;;;;1.83;1.73;;;20.90;99.90;;;;;;5085354;28;20701;-60
2021/06/08 10:02:33;;;;;;;3.42;3.10;;;20.90;99.90;;;;;;5085924;28;20064;-59
2021/06/08 10:05:29;;;;;;;2.80;2.47;;;20.70;99.90;;;;;;5085664;28;20086;-60
2021/06/08 10:07:57;;;;;;;2.45;2.25;;;20.90;99.90;;;;;;5085681;28;20488;-60
2021/06/08 10:10:42;;;;;;;2.17;1.98;;;21.10;99.90;;;;;;5085436;28;20036;-59
2021/06/08 10:13:20;;;;;;;1.98;1.88;;;21.30;99.90;;;;;;5085239;28;20133;-60
2021/06/08 10:15:59;;;;;;;2.03;1.80;;;21.40;99.90;;;;;;5084752;28;20016;-60
2021/06/08 10:18:46;;;;;;;2.30;2.08;;;21.40;99.90;;;;;;5084946;28;20615;-60
2021/06/08 10:21:12;;;;;;;2.72;2.33;;;21.20;99.90;;;;;;5085531;28;20016;-60
2021/06/08 10:23:38;;;;;;;2.28;1.98;;;21.30;99.90;;;;;;5084787;28;20107;-60
2021/06/08 10:26:10;;;;;;;2.22;2.00;;;21.40;99.90;;;;;;5086070;28;20035;-60
2021/06/08 10:28:36;;;;;;;2.22;2.03;;;21.50;99.90;;;;;;5085526;28;20042;-60
2021/06/08 10:31:03;;;;;;;3.10;2.80;;;21.60;99.90;;;;;;5085906;28;20178;-59
2021/06/08 10:33:29;;;;;;;3.20;2.90;;;21.50;99.90;;;;;;5083622;28;20565;-60
2021/06/08 10:35:55;;;;;;;4.90;3.85;;;21.50;99.90;;;;;;5085373;28;20103;-59
2021/06/08 10:38:22;;;;;;;3.13;2.83;;;21.30;99.90;;;;;;5085175;28;20024;-60
2021/06/08 10:40:53;;;;;;;3.42;2.55;;;21.30;99.90;;;;;;5072621;28;20084;-59
2021/06/08 10:43:24;;;;;;;2.55;2.30;;;21.40;99.90;;;;;;5071326;28;20048;-60
2021/06/08 10:45:54;;;;;;;2.17;1.98;;;21.50;99.90;;;;;;5065475;28;20032;-60
2021/06/08 10:48:48;;;;;;;2.55;2.20;;;21.60;99.90;;;;;;5070436;28;20032;-60
2021/06/08 10:51:20;;;;;;;2.45;2.25;;;21.60;99.90;;;;;;5065946;28;20044;-60
2021/06/08 10:53:52;;;;;;;2.15;1.90;;;21.70;99.90;;;;;;5069616;28;20033;-60
2021/06/08 10:56:30;;;;;;;2.08;1.90;;;21.80;99.90;;;;;;5066411;28;20083;-60
2021/06/08 10:58:59;;;;;;;2.95;2.60;;;21.90;99.90;;;;;;5066176;28;20031;-60
2021/06/08 11:01:34;;;;;;;2.40;2.20;;;21.70;99.90;;;;;;5065940;28;20021;-60
2021/06/08 11:04:02;;;;;;;3.28;2.58;;;21.70;99.90;;;;;;5066167;28;20052;-60
2021/06/08 11:06:37;;;;;;;3.63;3.28;;;21.70;99.90;;;;;;5079269;28;20518;-60
2021/06/08 11:09:05;;;;;;;2.97;2.67;;;21.50;99.90;;;;;;5087024;28;20028;-60
2021/06/08 11:11:44;;;;;;;2.60;2.38;;;21.60;99.90;;;;;;5086059;28;20016;-60
2021/06/08 11:17:04;;;;;;;2.95;2.33;;;22.20;99.90;;;;;;5085438;28;20024;-59
2021/06/08 11:19:44;;;;;;;3.05;2.63;;;22.70;99.90;;;;;;5085668;28;20103;-59
2021/06/08 11:22:12;;;;;;;3.00;2.70;;;22.50;99.90;;;;;;5085757;28;20024;-59
2021/06/08 11:24:40;;;;;;;2.40;2.20;;;22.30;99.90;;;;;;5071561;28;20402;-59
2021/06/08 11:27:07;;;;;;;3.30;3.00;;;22.40;99.90;;;;;;5082102;28;20023;-59
2021/06/08 11:29:47;;;;;;;2.78;2.53;;;22.60;99.90;;;;;;5081137;28;20024;-59
2021/06/08 11:32:31;;;;;;;3.70;3.30;;;22.90;99.90;;;;;;5071502;28;20118;-59
2021/06/08 11:35:17;;;;;;;3.67;3.03;;;23.20;99.90;;;;;;5087608;28;20028;-60
2021/06/08 11:37:52;;;;;;;3.05;2.75;;;23.10;99.90;;;;;;5086443;28;20020;-60
2021/06/08 11:40:36;;;;;;;2.92;2.63;;;23.10;99.90;;;;;;5087183;28;20032;-60
2021/06/08 11:43:03;;;;;;;3.85;3.10;;;23.00;99.90;;;;;;5087242;28;20489;-60
2021/06/08 11:45:34;;;;;;;3.40;3.00;;;22.90;99.90;;;;;;5087429;28;20035;-60
2021/06/08 11:48:00;;;;;;;3.67;2.85;;;22.90;99.90;;;;;;5087770;28;20081;-60
2021/06/08 11:50:45;;;;;;;3.35;3.05;;;23.00;99.90;;;;;;5087600;28;20032;-60
2021/06/08 11:53:15;;;;;;;3.10;2.75;;;23.00;99.90;;;;;;5087472;28;20077;-60
2021/06/08 11:55:44;;;;;;;2.83;2.63;;;23.10;99.90;;;;;;5086960;28;20031;-60
2021/06/08 11:58:35;;;;;;;3.25;2.95;;;23.30;99.90;;;;;;5086725;28;20020;-60
2021/06/08 12:01:02;;;;;;;3.50;3.20;;;23.50;99.90;;;;;;5087616;28;20125;-60
2021/06/08 12:03:32;;;;;;;4.50;3.78;;;23.50;99.90;;;;;;5087116;28;20024;-60
2021/06/08 12:05:59;;;;;;;5.03;4.32;;;23.50;99.90;;;;;;5087271;28;20032;-60
2021/06/08 12:08:32;;;;;;;5.63;4.28;;;23.40;99.90;;;;;;5086971;28;20609;-60
2021/06/08 12:10:59;;;;;;;3.92;3.50;;;23.50;99.90;;;;;;5087503;28;20036;-60
2021/06/08 12:13:33;;;;;;;4.93;4.15;;;23.60;99.90;;;;;;5086395;28;20509;-60
2021/06/08 12:16:00;;;;;;;4.18;3.78;;;23.10;99.90;;;;;;5086774;28;20497;-60
2021/06/08 12:18:35;;;;;;;4.05;3.42;;;23.00;99.90;;;;;;5081024;28;20020;-60
2021/06/08 12:21:01;;;;;;;2.80;2.50;;;23.10;99.90;;;;;;5066919;28;20025;-60
2021/06/08 12:23:31;;;;;;;2.20;2.00;;;23.20;99.90;;;;;;5066745;28;20032;-60
2021/06/08 12:26:13;;;;;;;2.88;2.58;;;23.40;99.90;;;;;;5066706;28;20059;-60
2021/06/08 12:28:43;;;;;;;2.17;1.98;;;23.40;99.90;;;;;;5066210;28;20514;-61
2021/06/08 12:31:14;;;;;;;3.58;2.55;;;23.40;99.90;;;;;;5080870;28;20078;-60
2021/06/08 12:33:41;;;;;;;3.60;3.28;;;23.30;99.90;;;;;;5086341;28;20020;-60
2021/06/08 12:36:08;;;;;;;3.10;2.65;;;23.00;99.90;;;;;;5086968;28;20080;-60
2021/06/08 12:38:34;;;;;;;3.72;3.40;;;23.00;99.90;;;;;;5087563;28;20042;-60
2021/06/08 12:41:10;;;;;;;4.40;3.28;;;23.00;99.90;;;;;;5086195;28;20055;-60
2021/06/08 12:43:52;;;;;;;2.53;2.33;;;23.10;99.90;;;;;;5087233;28;20196;-60
2021/06/08 12:46:29;;;;;;;4.00;3.10;;;23.10;99.90;;;;;;5080725;28;20035;-60
2021/06/08 12:49:17;;;;;;;3.88;2.90;;;23.40;99.90;;;;;;5086878;28;20501;-60
2021/06/08 12:51:57;;;;;;;3.47;3.15;;;23.60;99.90;;;;;;5086922;28;20068;-60
2021/06/08 12:54:44;;;;;;;4.13;3.17;;;24.00;99.90;;;;;;5086823;28;20510;-60
2021/06/08 12:57:32;;;;;;;3.97;3.58;;;24.50;99.90;;;;;;5087027;28;20263;-59
2021/06/08 13:00:00;;;;;;;3.95;3.40;;;24.20;99.90;;;;;;5086967;28;20105;-60
2021/06/08 13:02:29;;;;;;;3.05;2.75;;;24.60;99.90;;;;;;5086492;28;20032;-60
2021/06/08 13:04:59;;;;;;;3.30;3.00;;;24.80;99.90;;;;;;5086586;28;20121;-59